createdAt,value
2023-11-05T00:03:02.720Z,93806.25
2023-11-05T00:06:06.376Z,93814.72
2023-11-05T00:09:10.631Z,93819.75
2023-11-05T00:12:14.022Z,93819.03
2023-11-05T00:15:17.679Z,93826.22
2023-11-05T00:18:21.063Z,93828.44
2023-11-05T00:21:24.340Z,93831.41
2023-11-05T00:24:27.580Z,93829.97
2023-11-05T00:27:30.814Z,93821.25
2023-11-05T00:30:34.011Z,93821.66
2023-11-05T00:33:37.297Z,93824.97
2023-11-05T00:36:40.651Z,93828.00
2023-11-05T00:39:44.955Z,93810.50
2023-11-05T00:42:48.150Z,93805.75
2023-11-05T00:45:51.358Z,93807.97
2023-11-05T00:48:54.869Z,93808.41
2023-11-05T00:51:59.254Z,93809.53
2023-11-05T00:55:03.377Z,93810.03
2023-11-05T00:58:06.798Z,93818.09
2023-11-05T01:01:10.507Z,93821.47
2023-11-05T01:04:13.867Z,93826.72
2023-11-05T01:07:17.175Z,93836.00
2023-11-05T01:10:20.575Z,93821.88
2023-11-05T01:13:23.903Z,93818.28
2023-11-05T01:16:27.160Z,93825.78
2023-11-05T01:19:30.460Z,93826.38
2023-11-05T01:22:33.690Z,93840.81
2023-11-05T01:25:37.030Z,93835.63
2023-11-05T01:28:42.044Z,93838.13
2023-11-05T01:31:45.330Z,93837.50
2023-11-05T01:34:48.581Z,93837.47
2023-11-05T01:37:52.191Z,93839.44
2023-11-05T01:40:55.491Z,93837.03
2023-11-05T01:43:59.089Z,93829.06
2023-11-05T01:47:02.601Z,93821.69
2023-11-05T01:50:06.981Z,93821.19
2023-11-05T01:53:11.006Z,93820.03
2023-11-05T01:56:14.938Z,93813.44
2023-11-05T01:59:18.324Z,93819.25
2023-11-05T02:02:23.646Z,93824.66
2023-11-05T02:05:26.964Z,93828.53
2023-11-05T02:08:30.327Z,93824.28
2023-11-05T02:11:33.552Z,93819.56
2023-11-05T02:14:37.004Z,93823.59
2023-11-05T02:17:40.423Z,93817.47
2023-11-05T02:20:43.704Z,93817.75
2023-11-05T02:23:46.991Z,93821.91
2023-11-05T02:26:59.875Z,93817.03
2023-11-05T02:30:03.320Z,93815.59
2023-11-05T02:33:06.659Z,93807.59
2023-11-05T02:36:11.161Z,93810.69
2023-11-05T02:39:15.530Z,93807.88
2023-11-05T02:42:18.766Z,93804.53
2023-11-05T02:45:22.380Z,93798.44
2023-11-05T02:48:25.708Z,93795.13
2023-11-05T02:51:29.094Z,93791.59
2023-11-05T02:54:35.636Z,93795.50
2023-11-05T02:57:39.277Z,93782.31
2023-11-05T03:00:42.986Z,93785.34
2023-11-05T03:03:46.597Z,93790.47
2023-11-05T03:06:53.078Z,93773.16
2023-11-05T03:09:56.418Z,93774.16
2023-11-05T03:12:59.906Z,93774.31
2023-11-05T03:16:04.057Z,93773.63
2023-11-05T03:19:07.974Z,93769.19
2023-11-05T03:22:12.362Z,93771.38
2023-11-05T03:25:16.072Z,93759.63
2023-11-05T03:28:19.778Z,93765.19
2023-11-05T03:31:23.286Z,93765.84
2023-11-05T03:34:28.505Z,93771.38
2023-11-05T03:37:31.783Z,93768.47
2023-11-05T03:40:35.294Z,93758.59
2023-11-05T03:43:38.629Z,93758.56
2023-11-05T03:46:42.697Z,93752.06
2023-11-05T03:49:46.609Z,93747.59
2023-11-05T03:52:50.145Z,93750.13
2023-11-05T03:55:53.820Z,93749.19
2023-11-05T03:58:57.065Z,93742.31
2023-11-05T04:02:00.463Z,93735.94
2023-11-05T04:05:03.801Z,93727.19
2023-11-05T04:08:07.207Z,93728.63
2023-11-05T04:11:10.450Z,93727.66
2023-11-05T04:14:14.155Z,93731.97
2023-11-05T04:17:17.438Z,93726.03
2023-11-05T04:20:21.030Z,93727.97
2023-11-05T04:23:24.232Z,93724.81
2023-11-05T04:26:27.662Z,93717.22
2023-11-05T04:29:32.464Z,93716.88
2023-11-05T04:32:37.128Z,93715.19
2023-11-05T04:35:43.646Z,93703.53
2023-11-05T04:38:47.462Z,93694.44
2023-11-05T04:41:50.654Z,93688.38
2023-11-05T04:44:53.975Z,93696.59
2023-11-05T04:47:59.631Z,93702.72
2023-11-05T04:51:06.214Z,93698.19
2023-11-05T04:54:09.401Z,93702.78
2023-11-05T04:57:14.639Z,93697.53
2023-11-05T05:00:18.725Z,93706.69
2023-11-05T05:03:22.757Z,93695.94
2023-11-05T05:06:26.028Z,93700.53
2023-11-05T05:09:35.533Z,93692.59
2023-11-05T05:12:38.847Z,93694.84
2023-11-05T05:15:42.883Z,93683.00
2023-11-05T05:18:48.872Z,93680.84
2023-11-05T05:21:52.646Z,93676.53
2023-11-05T05:24:55.900Z,93668.41
2023-11-05T05:27:59.157Z,93673.81
2023-11-05T05:31:02.377Z,93669.06
2023-11-05T05:34:05.778Z,93673.25
2023-11-05T05:37:09.808Z,93674.28
2023-11-05T05:40:13.594Z,93662.56
2023-11-05T05:43:16.798Z,93662.63
2023-11-05T05:46:20.062Z,93662.59
2023-11-05T05:49:24.282Z,93661.75
2023-11-05T05:52:27.549Z,93662.81
2023-11-05T05:55:30.816Z,93654.56
2023-11-05T05:58:34.788Z,93647.13
2023-11-05T06:01:38.534Z,93640.34
2023-11-05T06:04:41.915Z,93636.03
2023-11-05T06:07:45.261Z,93641.41
2023-11-05T06:10:48.580Z,93637.06
2023-11-05T06:13:51.809Z,93636.09
2023-11-05T06:16:56.307Z,93624.88
2023-11-05T06:20:00.321Z,93617.44
2023-11-05T06:23:03.871Z,93616.44
2023-11-05T06:26:08.753Z,93623.59
2023-11-05T06:29:12.513Z,93621.47
2023-11-05T06:32:15.722Z,93617.63
2023-11-05T06:35:19.387Z,93610.53
2023-11-05T06:38:22.650Z,93605.75
2023-11-05T06:41:25.993Z,93605.53
2023-11-05T06:44:29.371Z,93602.13
2023-11-05T06:47:32.618Z,93605.03
2023-11-05T06:50:35.845Z,93601.91
2023-11-05T06:53:39.085Z,93604.25
2023-11-05T06:56:42.500Z,93599.88
2023-11-05T06:59:45.709Z,93601.13
2023-11-05T07:02:49.131Z,93597.44
2023-11-05T07:05:53.586Z,93591.63
2023-11-05T07:08:57.867Z,93595.19
2023-11-05T07:12:01.096Z,93590.41
2023-11-05T07:15:06.164Z,93597.97
2023-11-05T07:18:10.975Z,93594.09
2023-11-05T07:21:16.782Z,93590.88
2023-11-05T07:24:20.153Z,93593.72
2023-11-05T07:27:23.619Z,93591.03
2023-11-05T07:30:27.264Z,93586.91
2023-11-05T07:33:30.941Z,93593.16
2023-11-05T07:36:34.935Z,93589.94
2023-11-05T07:39:38.227Z,93592.53
2023-11-05T07:42:43.024Z,93585.50
2023-11-05T07:45:46.678Z,93587.94
2023-11-05T07:48:50.600Z,93585.59
2023-11-05T07:51:54.252Z,93587.41
2023-11-05T07:54:59.610Z,93585.53
2023-11-05T07:58:02.913Z,93586.41
2023-11-05T08:01:06.664Z,93576.88
2023-11-05T08:04:10.355Z,93576.84
2023-11-05T08:07:13.996Z,93574.38
2023-11-05T08:10:19.414Z,93573.03
2023-11-05T08:13:23.435Z,93573.72
2023-11-05T08:16:26.844Z,93567.47
2023-11-05T08:19:30.518Z,93566.94
2023-11-05T08:22:33.984Z,93557.47
2023-11-05T08:25:37.528Z,93570.97
2023-11-05T08:28:40.967Z,93564.41
2023-11-05T08:31:46.831Z,93569.72
2023-11-05T08:34:50.410Z,93572.19
2023-11-05T08:37:55.525Z,93567.41
2023-11-05T08:40:59.526Z,93577.94
2023-11-05T08:44:02.965Z,93577.75
2023-11-05T08:47:06.320Z,93583.44
2023-11-05T08:50:09.933Z,93582.78
2023-11-05T08:53:13.436Z,93586.28
2023-11-05T08:56:16.626Z,93585.25
2023-11-05T08:59:19.801Z,93589.28
2023-11-05T09:02:24.930Z,93580.94
2023-11-05T09:05:28.831Z,93582.28
2023-11-05T09:08:31.990Z,93584.81
2023-11-05T09:11:35.302Z,93592.88
2023-11-05T09:14:39.715Z,93584.25
2023-11-05T09:17:43.414Z,93581.81
2023-11-05T09:20:46.752Z,93587.97
2023-11-05T09:23:50.218Z,93590.63
2023-11-05T09:26:53.405Z,93590.16
2023-11-05T09:29:56.580Z,93586.09
2023-11-05T09:33:00.282Z,93584.88
2023-11-05T09:36:03.716Z,93584.81
2023-11-05T09:39:09.367Z,93585.22
2023-11-05T09:42:19.525Z,93583.28
2023-11-05T09:45:23.526Z,93589.81
2023-11-05T09:48:29.966Z,93583.50
2023-11-05T09:51:33.342Z,93581.50
2023-11-05T09:54:38.250Z,93586.59
2023-11-05T09:57:41.907Z,93592.22
2023-11-05T10:00:45.625Z,93590.84
2023-11-05T10:03:49.042Z,93600.53
2023-11-05T10:06:53.332Z,93599.69
2023-11-05T10:09:56.654Z,93593.47
2023-11-05T10:13:00.781Z,93591.66
2023-11-05T10:16:06.085Z,93587.03
2023-11-05T10:19:12.940Z,93593.38
2023-11-05T10:22:17.306Z,93586.13
2023-11-05T10:25:26.865Z,93585.13
2023-11-05T10:28:30.824Z,93579.97
2023-11-05T10:31:35.378Z,93588.84
2023-11-05T10:34:39.243Z,93580.81
2023-11-05T10:37:43.941Z,93584.06
2023-11-05T10:40:50.343Z,93575.13
2023-11-05T10:43:55.337Z,93587.16
2023-11-05T10:47:01.295Z,93583.09
2023-11-05T10:50:10.813Z,93577.84
2023-11-05T10:53:14.403Z,93576.22
2023-11-05T10:56:43.403Z,93578.13
2023-11-05T10:59:47.274Z,93576.00
2023-11-05T11:02:55.474Z,93578.25
2023-11-05T11:06:01.165Z,93572.69
2023-11-05T11:09:31.837Z,93563.03
2023-11-05T11:12:36.172Z,93570.63
2023-11-05T11:15:39.365Z,93569.91
2023-11-05T11:18:45.661Z,93556.13
2023-11-05T11:22:05.849Z,93561.88
2023-11-05T11:25:09.537Z,93556.59
2023-11-05T11:28:13.005Z,93561.47
2023-11-05T11:31:16.276Z,93558.19
2023-11-05T11:34:22.550Z,93564.13
2023-11-05T11:37:25.806Z,93553.47
2023-11-05T11:40:29.840Z,93556.75
2023-11-05T11:43:33.472Z,93547.44
2023-11-05T11:46:37.251Z,93552.91
2023-11-05T11:49:41.050Z,93545.53
2023-11-05T11:52:49.078Z,93544.59
2023-11-05T11:55:53.100Z,93545.00
2023-11-05T11:58:59.284Z,93547.38
2023-11-05T12:02:04.687Z,93541.66
2023-11-05T12:05:08.995Z,93539.97
2023-11-05T12:08:13.777Z,93538.47
2023-11-05T12:11:24.187Z,93536.28
2023-11-05T12:14:31.738Z,93536.28
2023-11-05T12:17:35.098Z,93535.28
2023-11-05T12:20:38.437Z,93537.66
2023-11-05T12:23:46.054Z,93538.53
2023-11-05T12:26:51.557Z,93529.56
2023-11-05T12:29:55.010Z,93539.56
2023-11-05T12:32:58.430Z,93541.75
2023-11-05T12:36:02.539Z,93541.34
2023-11-05T12:39:05.787Z,93537.78
2023-11-05T12:42:09.442Z,93540.16
2023-11-05T12:45:13.462Z,93541.34
2023-11-05T12:48:16.813Z,93536.81
2023-11-05T12:51:20.101Z,93538.69
2023-11-05T12:54:23.435Z,93542.56
2023-11-05T12:57:26.730Z,93540.88
2023-11-05T13:00:30.778Z,93535.63
2023-11-05T13:03:36.710Z,93536.31
2023-11-05T13:06:45.629Z,93526.72
2023-11-05T13:09:48.910Z,93536.69
2023-11-05T13:12:52.255Z,93527.56
2023-11-05T13:15:55.569Z,93526.88
2023-11-05T13:18:58.767Z,93523.16
2023-11-05T13:22:02.083Z,93517.06
2023-11-05T13:25:08.371Z,93510.81
2023-11-05T13:28:11.545Z,93516.56
2023-11-05T13:31:14.860Z,93517.78
2023-11-05T13:34:18.187Z,93518.44
2023-11-05T13:37:21.643Z,93510.84
2023-11-05T13:40:27.665Z,93517.09
2023-11-05T13:43:31.687Z,93514.91
2023-11-05T13:46:35.131Z,93512.56
2023-11-05T13:49:38.378Z,93507.81
2023-11-05T13:52:41.567Z,93519.13
2023-11-05T13:55:44.792Z,93511.16
2023-11-05T13:58:50.866Z,93497.31
2023-11-05T14:01:54.127Z,93496.31
2023-11-05T14:04:57.453Z,93503.56
2023-11-05T14:08:00.775Z,93494.78
2023-11-05T14:11:04.119Z,93488.34
2023-11-05T14:14:13.121Z,93483.94
2023-11-05T14:17:17.277Z,93494.44
2023-11-05T14:20:20.658Z,93487.34
2023-11-05T14:23:24.486Z,93485.50
2023-11-05T14:26:27.905Z,93475.19
2023-11-05T14:29:31.100Z,93477.00
2023-11-05T14:32:43.882Z,93480.06
2023-11-05T14:35:47.113Z,93474.47
2023-11-05T14:38:50.628Z,93481.41
2023-11-05T14:41:55.438Z,93476.34
2023-11-05T14:44:58.595Z,93478.69
2023-11-05T14:48:02.963Z,93470.72
2023-11-05T14:51:19.408Z,93469.38
2023-11-05T14:54:29.573Z,93469.88
2023-11-05T14:57:32.949Z,93469.84
2023-11-05T15:00:36.418Z,93470.31
2023-11-05T15:03:39.644Z,93458.00
2023-11-05T15:06:43.103Z,93461.53
2023-11-05T15:09:46.323Z,93449.38
2023-11-05T15:12:49.680Z,93449.03
2023-11-05T15:15:54.831Z,93434.34
2023-11-05T15:18:58.197Z,93441.22
2023-11-05T15:22:02.566Z,93440.69
2023-11-05T15:25:08.584Z,93437.31
2023-11-05T15:28:14.937Z,93440.91
2023-11-05T15:31:18.279Z,93438.44
2023-11-05T15:34:21.894Z,93438.34
2023-11-05T15:37:25.127Z,93428.72
2023-11-05T15:40:29.623Z,93426.03
2023-11-05T15:43:34.250Z,93427.22
2023-11-05T15:46:37.545Z,93427.03
2023-11-05T15:49:41.284Z,93426.88
2023-11-05T15:52:44.949Z,93419.28
2023-11-05T15:55:48.296Z,93417.06
2023-11-05T15:58:51.809Z,93412.97
2023-11-05T16:01:55.092Z,93407.25
2023-11-05T16:04:58.335Z,93406.22
2023-11-05T16:08:02.103Z,93412.94
2023-11-05T16:11:06.833Z,93411.41
2023-11-05T16:14:10.352Z,93401.31
2023-11-05T16:17:13.541Z,93404.50
2023-11-05T16:20:16.881Z,93400.81
2023-11-05T16:23:20.064Z,93401.81
2023-11-05T16:26:23.281Z,93398.44
2023-11-05T16:29:26.745Z,93396.72
2023-11-05T16:32:29.978Z,93381.47
2023-11-05T16:35:33.625Z,93380.72
2023-11-05T16:38:37.942Z,93382.97
2023-11-05T16:41:41.381Z,93373.50
2023-11-05T16:44:44.938Z,93384.50
2023-11-05T16:47:49.202Z,93381.34
2023-11-05T16:50:52.475Z,93382.75
2023-11-05T16:53:55.715Z,93382.19
2023-11-05T16:56:58.916Z,93365.78
2023-11-05T17:00:02.138Z,93360.88
2023-11-05T17:03:06.644Z,93358.06
2023-11-05T17:06:10.303Z,93346.31
2023-11-05T17:09:14.011Z,93344.53
2023-11-05T17:12:17.553Z,93341.69
2023-11-05T17:15:20.808Z,93330.88
2023-11-05T17:18:24.093Z,93330.31
2023-11-05T17:21:27.294Z,93330.94
2023-11-05T17:24:30.493Z,93333.56
2023-11-05T17:27:34.474Z,93321.94
2023-11-05T17:30:37.860Z,93316.41
2023-11-05T17:33:41.096Z,93320.28
2023-11-05T17:36:44.389Z,93323.19
2023-11-05T17:39:47.528Z,93320.81
2023-11-05T17:42:50.716Z,93315.94
2023-11-05T17:45:53.868Z,93305.97
2023-11-05T17:48:57.332Z,93301.72
2023-11-05T17:52:00.549Z,93293.22
2023-11-05T17:55:06.301Z,93300.06
2023-11-05T17:58:09.594Z,93297.72
2023-11-05T18:01:15.997Z,93290.50
2023-11-05T18:04:19.388Z,93288.31
2023-11-05T18:07:22.651Z,93289.31
2023-11-05T18:10:35.510Z,93285.75
2023-11-05T18:13:42.487Z,93287.75
2023-11-05T18:16:46.128Z,93292.53
2023-11-05T18:19:49.409Z,93284.56
2023-11-05T18:22:52.636Z,93286.09
2023-11-05T18:25:56.023Z,93275.13
2023-11-05T18:28:59.308Z,93268.25
2023-11-05T18:32:02.636Z,93269.25
2023-11-05T18:35:06.813Z,93263.84
2023-11-05T18:38:10.070Z,93255.94
2023-11-05T18:41:13.383Z,93253.72
2023-11-05T18:44:17.873Z,93249.00
2023-11-05T18:47:22.700Z,93247.31
2023-11-05T18:50:25.904Z,93249.34
2023-11-05T18:53:29.144Z,93232.31
2023-11-05T18:56:33.626Z,93228.09
2023-11-05T18:59:36.788Z,93231.31
2023-11-05T19:02:41.232Z,93238.72
2023-11-05T19:05:44.634Z,93229.94
2023-11-05T19:08:47.808Z,93221.72
2023-11-05T19:11:51.139Z,93229.63
2023-11-05T19:14:54.316Z,93226.22
2023-11-05T19:17:58.284Z,93215.22
2023-11-05T19:21:01.581Z,93214.84
2023-11-05T19:24:04.936Z,93207.19
2023-11-05T19:27:10.116Z,93195.13
2023-11-05T19:30:15.699Z,93189.06
2023-11-05T19:33:18.989Z,93177.38
2023-11-05T19:36:25.511Z,93176.41
2023-11-05T19:39:28.677Z,93180.97
2023-11-05T19:42:32.911Z,93185.41
2023-11-05T19:45:36.078Z,93180.00
2023-11-05T19:48:39.531Z,93177.16
2023-11-05T19:51:42.744Z,93168.06
2023-11-05T19:54:45.976Z,93156.94
2023-11-05T19:57:50.037Z,93156.28
2023-11-05T20:01:07.285Z,93148.69
2023-11-05T20:04:10.505Z,93146.69
2023-11-05T20:07:17.070Z,93143.63
2023-11-05T20:10:20.809Z,93139.09
2023-11-05T20:13:24.025Z,93147.38
2023-11-05T20:16:27.213Z,93153.59
2023-11-05T20:19:31.029Z,93148.69
2023-11-05T20:22:34.885Z,93147.19
2023-11-05T20:25:38.222Z,93134.72
2023-11-05T20:28:42.305Z,93145.97
2023-11-05T20:31:46.893Z,93142.13
2023-11-05T20:34:49.902Z,93137.41
2023-11-05T20:37:53.147Z,93140.63
2023-11-05T20:40:56.403Z,93142.78
2023-11-05T20:43:59.871Z,93139.91
2023-11-05T20:47:05.037Z,93130.16
2023-11-05T20:50:10.247Z,93132.00
2023-11-05T20:53:13.583Z,93130.66
2023-11-05T20:56:18.693Z,93129.78
2023-11-05T20:59:21.908Z,93127.09
2023-11-05T21:02:25.145Z,93116.47
2023-11-05T21:05:28.959Z,93113.13
2023-11-05T21:08:32.356Z,93113.78
2023-11-05T21:11:35.694Z,93112.78
2023-11-05T21:14:38.943Z,93122.56
2023-11-05T21:17:42.236Z,93112.44
2023-11-05T21:20:45.626Z,93119.84
2023-11-05T21:23:48.833Z,93128.09
2023-11-05T21:26:52.255Z,93132.13
2023-11-05T21:29:55.482Z,93126.25
2023-11-05T21:32:58.975Z,93120.66
2023-11-05T21:36:02.199Z,93126.03
2023-11-05T21:39:10.151Z,93121.16
2023-11-05T21:42:13.367Z,93122.66
2023-11-05T21:45:16.851Z,93120.16
2023-11-05T21:48:20.105Z,93116.63
2023-11-05T21:51:23.359Z,93112.63
2023-11-05T21:54:26.791Z,93112.47
2023-11-05T21:57:29.968Z,93113.63
2023-11-05T22:00:33.671Z,93103.03
2023-11-05T22:03:36.980Z,93107.56
2023-11-05T22:06:40.238Z,93113.47
2023-11-05T22:09:43.460Z,93116.00
2023-11-05T22:12:46.680Z,93105.91
2023-11-05T22:15:50.631Z,93099.69
2023-11-05T22:18:53.875Z,93102.69
2023-11-05T22:21:57.196Z,93100.16
2023-11-05T22:25:00.394Z,93095.81
2023-11-05T22:28:04.738Z,93097.16
2023-11-05T22:31:07.980Z,93097.44
2023-11-05T22:34:11.272Z,93109.41
2023-11-05T22:37:14.489Z,93097.31
2023-11-05T22:40:19.864Z,93095.97
2023-11-05T22:43:24.909Z,93091.88
2023-11-05T22:46:28.217Z,93085.66
2023-11-05T22:49:31.751Z,93076.91
2023-11-05T22:52:34.966Z,93072.50
2023-11-05T22:55:39.742Z,93081.94
2023-11-05T22:58:43.120Z,93090.38
2023-11-05T23:01:46.338Z,93094.91
2023-11-05T23:04:50.009Z,93097.59
2023-11-05T23:07:53.458Z,93089.84
2023-11-05T23:10:57.150Z,93095.53
2023-11-05T23:14:02.507Z,93087.16
2023-11-05T23:17:06.042Z,93087.66
2023-11-05T23:20:10.166Z,93084.09
2023-11-05T23:23:14.667Z,93086.09
2023-11-05T23:26:18.780Z,93078.34
2023-11-05T23:29:45.543Z,93079.34
2023-11-05T23:32:52.381Z,93076.31
2023-11-05T23:35:55.510Z,93072.94
2023-11-05T23:38:59.308Z,93078.44
2023-11-05T23:42:02.481Z,93079.63
2023-11-05T23:45:07.581Z,93078.28
2023-11-05T23:48:10.847Z,93079.63
2023-11-05T23:51:14.087Z,93074.25
2023-11-05T23:54:17.640Z,93087.06
2023-11-05T23:57:20.921Z,93076.13
